Time;durP1;ratioP1;P1;durP2;ratioP2;P2;SDS_P1;SDS_P2;PMS_P1;PMS_P2;Temp;Humidity;BMP_temperature;BMP_pressure;BME280_temperature;BME280_humidity;BME280_pressure;Samples;Min_cycle;Max_cycle;Signal;HPM_P1;HPM_P2
2024/01/23 00:01:20;;;;;;;31.38;22.85;;;;;;;-0.04;72.87;99674.09;5126859;28;20043;-73
2024/01/23 00:03:47;;;;;;;29.10;24.38;;;;;;;-0.11;73.25;99676.75;5126778;28;20104;-70
2024/01/23 00:06:14;;;;;;;27.40;21.80;;;;;;;-0.28;74.20;99678.59;5126240;28;20085;-70
2024/01/23 00:08:40;;;;;;;31.13;22.88;;;;;;;-0.17;73.28;99685.47;5126719;28;20043;-70
2024/01/23 00:11:07;;;;;;;32.95;23.95;;;;;;;-0.16;73.09;99691.56;5126263;28;20096;-70
2024/01/23 00:13:34;;;;;;;35.08;25.30;;;;;;;-0.12;72.77;99685.44;5126638;28;20062;-70
2024/01/23 00:16:02;;;;;;;28.30;22.63;;;;;;;-0.20;72.39;99682.91;5126561;28;20051;-70
2024/01/23 00:18:28;;;;;;;32.30;22.40;;;;;;;-0.24;72.20;99728.06;5126523;28;20245;-71
2024/01/23 00:20:55;;;;;;;29.38;22.70;;;;;;;-0.21;72.33;99688.13;5126178;28;20320;-71
2024/01/23 00:23:22;;;;;;;27.85;22.85;;;;;;;-0.16;71.79;99694.16;5125872;28;20042;-71
2024/01/23 00:25:48;;;;;;;31.83;23.58;;;;;;;-0.22;72.30;99699.41;5126643;28;20097;-70
2024/01/23 00:28:15;;;;;;;30.42;23.05;;;;;;;-0.18;72.42;99701.13;5126659;28;20047;-71
2024/01/23 00:30:42;;;;;;;33.28;23.08;;;;;;;-0.21;72.57;99694.19;5126617;28;20315;-71
2024/01/23 00:33:10;;;;;;;30.35;23.02;;;;;;;-0.27;73.55;99690.75;5126341;28;20291;-70
2024/01/23 00:35:37;;;;;;;30.55;22.33;;;;;;;-0.24;73.09;99689.00;5125155;28;20035;-70
2024/01/23 00:38:04;;;;;;;30.95;23.00;;;;;;;-0.26;73.69;99700.31;5126251;28;20102;-70
2024/01/23 00:40:31;;;;;;;32.17;22.75;;;;;;;-0.57;74.22;99660.56;5125261;28;20166;-71
2024/01/23 00:42:57;;;;;;;33.38;23.58;;;;;;;-0.29;73.07;99693.38;5125942;28;20181;-70
2024/01/23 00:45:24;;;;;;;30.38;23.10;;;;;;;-0.23;72.73;99701.16;5126206;28;20040;-70
2024/01/23 00:47:51;;;;;;;33.97;24.55;;;;;;;-0.31;73.26;99683.84;5126170;28;20054;-70
2024/01/23 00:50:19;;;;;;;32.50;24.45;;;;;;;-0.21;72.88;99698.53;5126095;28;20062;-70
2024/01/23 00:52:45;;;;;;;30.50;22.65;;;;;;;-0.21;72.08;99701.13;5126779;28;20372;-70
2024/01/23 00:55:12;;;;;;;32.20;23.77;;;;;;;-0.28;73.33;99695.09;5126094;28;20050;-71
2024/01/23 00:57:39;;;;;;;31.55;23.25;;;;;;;-0.25;73.16;99696.81;5126115;28;20059;-70
2024/01/23 01:00:08;;;;;;;31.83;24.15;;;;;;;-0.35;73.89;99698.63;5126047;28;20050;-71
2024/01/23 01:02:35;;;;;;;34.50;24.08;;;;;;;-0.24;72.64;99689.00;5125798;28;20045;-70
2024/01/23 01:05:02;;;;;;;31.35;23.77;;;;;;;-0.25;73.23;99682.06;5129703;28;20092;-71
2024/01/23 01:07:30;;;;;;;33.72;23.67;;;;;;;-0.26;72.98;99680.31;5129653;28;20059;-71
2024/01/23 01:09:56;;;;;;;32.97;24.42;;;;;;;-0.27;73.31;99676.00;5130010;28;20097;-71
2024/01/23 01:12:23;;;;;;;35.45;25.40;;;;;;;-0.31;73.75;99676.03;5130022;28;20051;-73
2024/01/23 01:14:49;;;;;;;30.30;22.77;;;;;;;-0.28;73.42;99678.59;5129732;28;20108;-71
2024/01/23 01:17:16;;;;;;;33.80;23.10;;;;;;;-0.28;73.23;99681.22;5129955;28;20043;-71
2024/01/23 01:19:43;;;;;;;32.50;24.33;;;;;;;-0.31;73.41;99687.31;5129946;28;20047;-71
2024/01/23 01:22:09;;;;;;;36.30;25.80;;;;;;;-0.30;73.59;99675.16;5128740;28;20295;-71
2024/01/23 01:24:38;;;;;;;32.78;23.20;;;;;;;-0.30;73.46;99668.19;5129838;28;20054;-71
2024/01/23 01:27:04;;;;;;;37.05;24.92;;;;;;;-0.26;73.31;99666.44;5129910;28;20051;-71
2024/01/23 01:29:31;;;;;;;35.95;26.52;;;;;;;-0.31;73.51;99657.78;5129896;28;20043;-71
2024/01/23 01:31:58;;;;;;;35.88;24.88;;;;;;;-0.37;74.15;99671.72;5129491;28;20110;-71
2024/01/23 01:34:25;;;;;;;31.33;24.55;;;;;;;-0.41;74.50;99676.06;5129164;28;20242;-71
2024/01/23 01:36:51;;;;;;;32.00;24.52;;;;;;;-0.73;74.62;99628.53;5129579;28;20043;-70
2024/01/23 01:39:18;;;;;;;33.97;24.35;;;;;;;-0.45;74.65;99674.38;5129554;28;20043;-70
2024/01/23 01:41:52;;;;;;;34.92;24.13;;;;;;;-0.49;75.01;99677.84;5129167;28;20088;-70
2024/01/23 01:44:19;;;;;;;38.50;24.75;;;;;;;-0.51;75.05;99677.00;5129332;28;20043;-70
2024/01/23 01:46:46;;;;;;;35.58;25.23;;;;;;;-0.46;74.23;99674.38;5129383;28;20127;-71
2024/01/23 01:49:14;;;;;;;33.75;24.85;;;;;;;-0.49;75.00;99675.25;5129361;28;20043;-72
2024/01/23 01:51:43;;;;;;;38.22;26.13;;;;;;;-0.55;75.37;99675.28;5129305;28;20039;-71
2024/01/23 01:54:09;;;;;;;42.05;27.05;;;;;;;-0.60;75.85;99679.66;5129005;28;20043;-71
2024/01/23 01:56:36;;;;;;;35.50;26.10;;;;;;;-0.57;76.00;99689.19;5129131;28;20136;-71
2024/01/23 01:59:04;;;;;;;41.05;26.95;;;;;;;-0.60;75.71;99684.84;5128911;28;20040;-71
2024/01/23 02:01:30;;;;;;;38.25;27.50;;;;;;;-0.63;76.03;99681.41;5129404;28;20173;-71
2024/01/23 02:03:58;;;;;;;35.80;26.58;;;;;;;-0.81;75.71;99652.00;5127960;28;20360;-71
2024/01/23 02:06:25;;;;;;;39.60;28.45;;;;;;;-0.63;75.75;99682.28;5128661;28;20100;-71
2024/01/23 02:08:52;;;;;;;39.78;28.98;;;;;;;-0.64;75.92;99685.75;5128179;28;20086;-71
2024/01/23 02:11:19;;;;;;;39.88;29.10;;;;;;;-0.58;75.33;99690.94;5128771;28;20067;-71
2024/01/23 02:13:46;;;;;;;39.00;29.17;;;;;;;-0.55;75.09;99688.31;5128884;28;20055;-71
2024/01/23 02:16:14;;;;;;;37.92;27.23;;;;;;;-0.54;75.53;99694.38;5127681;28;20043;-71
2024/01/23 02:18:40;;;;;;;39.70;29.05;;;;;;;-0.61;76.04;99690.94;5128167;28;20197;-71
2024/01/23 02:21:09;;;;;;;41.78;31.08;;;;;;;-0.58;75.91;99690.94;5128467;28;20039;-71
2024/01/23 02:23:37;;;;;;;43.13;28.70;;;;;;;-0.84;75.83;99641.59;5128436;28;20343;-71
2024/01/23 02:26:04;;;;;;;41.78;30.58;;;;;;;-0.55;75.69;99690.03;5128665;28;20043;-71
2024/01/23 02:28:30;;;;;;;42.53;30.98;;;;;;;-0.50;75.14;99678.72;5128331;28;20035;-71
2024/01/23 02:30:57;;;;;;;40.25;29.23;;;;;;;-0.47;74.66;99691.72;5110540;28;20039;-70
2024/01/23 02:33:24;;;;;;;46.47;30.40;;;;;;;-0.46;74.69;99687.38;5128213;28;20093;-71
2024/01/23 02:35:50;;;;;;;41.38;28.52;;;;;;;-0.45;75.26;99689.13;5128537;28;20044;-71
2024/01/23 02:38:17;;;;;;;46.53;32.13;;;;;;;-0.47;75.79;99709.97;5128259;28;20051;-71
2024/01/23 02:40:45;;;;;;;47.83;30.35;;;;;;;-0.52;75.99;99706.53;5128177;28;20093;-71
2024/01/23 02:43:12;;;;;;;44.75;30.83;;;;;;;-1.02;76.20;99621.69;5127416;28;20058;-71
2024/01/23 02:45:38;;;;;;;48.22;31.33;;;;;;;-0.56;76.38;99701.34;5128270;28;20047;-71
2024/01/23 02:48:06;;;;;;;41.40;30.08;;;;;;;-0.79;76.65;99655.44;5128271;28;20085;-71
2024/01/23 02:50:32;;;;;;;42.72;31.20;;;;;;;-0.60;76.75;99684.84;5127832;28;20039;-71
2024/01/23 02:52:59;;;;;;;49.20;32.58;;;;;;;-0.64;77.02;99680.53;5128089;28;20051;-71
2024/01/23 02:55:25;;;;;;;43.92;31.05;;;;;;;-0.67;77.52;99675.34;5128075;28;20043;-72
2024/01/23 02:57:53;;;;;;;45.63;31.73;;;;;;;-0.64;77.05;99672.72;5128014;28;20040;-72
2024/01/23 03:00:20;;;;;;;43.17;31.15;;;;;;;-0.64;77.11;99664.94;5127950;28;20238;-71
2024/01/23 03:02:47;;;;;;;45.35;31.80;;;;;;;-0.80;77.09;99645.06;5128172;28;20044;-71
2024/01/23 03:05:14;;;;;;;42.45;29.70;;;;;;;-0.57;76.64;99692.66;5127946;28;20063;-72
2024/01/23 03:07:41;;;;;;;41.25;29.67;;;;;;;-0.52;75.88;99685.69;5127505;28;20287;-71
2024/01/23 03:10:08;;;;;;;46.63;31.80;;;;;;;-0.53;76.28;99691.75;5127660;28;20047;-71
2024/01/23 03:12:35;;;;;;;44.33;31.13;;;;;;;-0.60;76.58;99679.66;5126934;28;20043;-71
2024/01/23 03:15:04;;;;;;;43.90;30.25;;;;;;;-0.53;75.67;99689.16;5127452;28;20055;-71
2024/01/23 03:17:29;;;;;;;42.08;29.58;;;;;;;-0.51;76.01;99686.56;5127305;28;20044;-71
2024/01/23 03:19:56;;;;;;;46.13;32.25;;;;;;;-0.81;76.55;99638.13;5127550;28;20036;-71
2024/01/23 03:22:22;;;;;;;44.80;31.08;;;;;;;-0.56;76.43;99678.75;5127507;28;20062;-72
2024/01/23 03:24:49;;;;;;;45.47;32.97;;;;;;;-0.59;77.02;99681.38;5127520;28;20055;-72
2024/01/23 03:27:16;;;;;;;46.28;32.92;;;;;;;-0.65;77.23;99681.41;5126892;28;20043;-71
2024/01/23 03:29:44;;;;;;;46.25;33.17;;;;;;;-0.64;77.02;99671.88;5127059;28;20089;-72
2024/01/23 03:32:12;;;;;;;46.10;31.83;;;;;;;-1.37;77.26;99554.22;5127514;28;20189;-71
2024/01/23 03:34:40;;;;;;;45.55;33.00;;;;;;;-0.87;77.28;99632.94;5127011;28;20042;-72
2024/01/23 03:37:07;;;;;;;44.30;30.85;;;;;;;-0.70;77.67;99672.75;5125921;28;20058;-72
2024/01/23 03:39:34;;;;;;;45.30;32.85;;;;;;;-0.71;77.61;99671.91;5126923;28;20124;-72
2024/01/23 03:42:02;;;;;;;44.33;30.52;;;;;;;-0.68;77.21;99677.09;5127135;28;20050;-72
2024/01/23 03:44:29;;;;;;;43.63;33.00;;;;;;;-0.61;76.56;99682.25;5127348;28;20110;-72
2024/01/23 03:46:56;;;;;;;50.00;32.83;;;;;;;-0.58;76.24;99679.66;5127293;28;20039;-72
2024/01/23 03:49:24;;;;;;;41.95;32.33;;;;;;;-0.59;76.38;99689.19;5126941;28;20039;-72
2024/01/23 03:51:51;;;;;;;51.97;32.08;;;;;;;-0.61;76.39;99682.25;5127130;28;20292;-72
2024/01/23 03:54:18;;;;;;;47.22;32.38;;;;;;;-0.59;76.17;99697.00;5126900;28;20036;-72
2024/01/23 03:56:45;;;;;;;44.65;31.85;;;;;;;-0.64;76.93;99688.34;5126831;28;20043;-73
2024/01/23 03:59:12;;;;;;;48.95;32.75;;;;;;;-0.59;76.92;99697.00;5126839;28;20051;-72
2024/01/23 04:01:38;;;;;;;49.05;32.97;;;;;;;-0.58;76.50;99701.34;5126765;28;20039;-71
2024/01/23 04:04:05;;;;;;;42.95;32.25;;;;;;;-0.57;76.07;99712.63;5126450;28;20051;-72
2024/01/23 04:06:33;;;;;;;45.55;33.28;;;;;;;-0.55;76.42;99709.13;5126214;28;20059;-72
2024/01/23 04:09:00;;;;;;;44.65;31.00;;;;;;;-0.96;76.54;99635.59;5125554;28;20044;-72
2024/01/23 04:11:27;;;;;;;45.70;31.33;;;;;;;-0.55;76.45;99708.28;5126568;28;20035;-72
2024/01/23 04:13:53;;;;;;;48.88;33.17;;;;;;;-0.59;76.56;99706.56;5126864;28;20039;-71
2024/01/23 04:16:20;;;;;;;49.50;32.13;;;;;;;-0.62;76.72;99715.25;5126746;28;20238;-72
2024/01/23 04:18:47;;;;;;;47.88;32.35;;;;;;;-0.63;77.03;99720.47;5126520;28;20054;-72
2024/01/23 04:21:15;;;;;;;48.35;32.75;;;;;;;-0.88;77.17;99684.13;5126515;28;20052;-72
2024/01/23 04:23:44;;;;;;;46.40;33.13;;;;;;;-1.54;77.79;99596.75;5126726;28;20078;-71
2024/01/23 04:26:10;;;;;;;46.10;33.05;;;;;;;-0.70;77.74;99722.22;5126385;28;20040;-72
2024/01/23 04:28:37;;;;;;;43.67;32.08;;;;;;;-0.70;77.12;99730.03;5126402;28;20051;-72
2024/01/23 04:31:04;;;;;;;45.20;31.88;;;;;;;-0.66;77.34;99729.16;5126494;28;20043;-72
2024/01/23 04:33:31;;;;;;;46.10;33.25;;;;;;;-0.69;77.75;99739.56;5126316;28;20055;-72
2024/01/23 04:35:58;;;;;;;53.53;34.15;;;;;;;-0.74;78.09;99728.31;5126540;28;20047;-72
2024/01/23 04:38:24;;;;;;;41.53;31.20;;;;;;;-0.71;77.71;99743.91;5125301;28;20312;-72
2024/01/23 04:40:52;;;;;;;45.95;32.25;;;;;;;-0.66;77.11;99738.69;5126221;28;20036;-72
2024/01/23 04:43:19;;;;;;;42.65;32.65;;;;;;;-0.69;77.85;99758.66;5126095;28;20170;-72
2024/01/23 04:45:46;;;;;;;50.85;34.22;;;;;;;-0.71;77.85;99755.19;5125904;28;20051;-71
2024/01/23 04:48:12;;;;;;;49.38;33.55;;;;;;;-1.29;77.50;99663.41;5126151;28;20055;-73
2024/01/23 04:50:39;;;;;;;47.30;33.20;;;;;;;-0.70;77.71;99767.34;5125994;28;20088;-72
2024/01/23 04:53:06;;;;;;;50.67;33.75;;;;;;;-0.68;77.51;99759.53;5125876;28;20051;-73
2024/01/23 04:55:32;;;;;;;47.28;34.67;;;;;;;-0.67;77.94;99761.25;5126019;28;20203;-72
2024/01/23 04:58:01;;;;;;;46.60;32.70;;;;;;;-0.68;77.59;99769.94;5126104;28;20044;-69
2024/01/23 05:00:28;;;;;;;45.53;33.13;;;;;;;-0.66;78.20;99777.72;5126239;28;20077;-71
2024/01/23 05:02:54;;;;;;;51.92;34.90;;;;;;;-0.64;77.63;99773.38;5125836;28;20341;-71
2024/01/23 05:05:21;;;;;;;47.28;34.65;;;;;;;-0.63;77.28;99768.19;5125494;28;20043;-72
2024/01/23 05:07:48;;;;;;;48.08;33.97;;;;;;;-0.61;77.80;99775.97;5124627;28;20338;-72
2024/01/23 05:10:14;;;;;;;53.53;34.70;;;;;;;-0.61;77.84;99776.84;5125933;28;20043;-72
2024/01/23 05:12:41;;;;;;;53.88;34.97;;;;;;;-0.65;78.08;99788.16;5125626;28;20096;-71
2024/01/23 05:15:09;;;;;;;48.40;34.25;;;;;;;-0.64;78.40;99786.41;5125619;28;20349;-72
2024/01/23 05:17:37;;;;;;;49.38;35.45;;;;;;;-0.72;79.09;99783.81;5125927;28;20044;-72
2024/01/23 05:20:05;;;;;;;49.30;33.33;;;;;;;-0.71;78.94;99790.75;5125936;28;20104;-72
2024/01/23 05:22:32;;;;;;;48.90;33.88;;;;;;;-0.72;79.38;99784.69;5125573;28;20180;-72
2024/01/23 05:24:58;;;;;;;52.55;35.05;;;;;;;-0.64;78.64;99792.47;5126120;28;20039;-72
2024/01/23 05:27:26;;;;;;;49.53;34.70;;;;;;;-0.58;78.59;99797.66;5125861;28;20089;-71
2024/01/23 05:29:53;;;;;;;48.63;33.83;;;;;;;-0.82;78.68;99766.50;5125947;28;20106;-71
2024/01/23 05:32:21;;;;;;;53.72;35.40;;;;;;;-0.62;78.82;99790.75;5125636;28;20043;-69
2024/01/23 05:34:47;;;;;;;50.80;36.08;;;;;;;-0.63;79.39;99794.22;5125735;28;20085;-71
2024/01/23 05:37:14;;;;;;;52.20;36.03;;;;;;;-0.64;79.22;99787.28;5125694;28;20112;-71
2024/01/23 05:39:41;;;;;;;51.55;33.88;;;;;;;-0.61;79.10;99791.59;5125675;28;20270;-71
2024/01/23 05:42:07;;;;;;;49.75;34.33;;;;;;;-0.58;78.77;99797.66;5125358;28;20039;-71
2024/01/23 05:44:35;;;;;;;44.92;32.50;;;;;;;-0.57;79.07;99799.41;5125595;28;20051;-71
2024/01/23 05:47:02;;;;;;;47.42;35.00;;;;;;;-0.74;79.34;99765.63;5125596;28;20058;-72
2024/01/23 05:49:31;;;;;;;49.78;32.55;;;;;;;-0.51;79.13;99803.72;5125903;28;20096;-72
2024/01/23 05:51:58;;;;;;;44.40;30.77;;;;;;;-0.43;79.88;99813.25;5129239;28;20039;-72
2024/01/23 05:54:24;;;;;;;40.40;27.60;;;;;;;-0.32;80.02;99809.72;5129211;28;20084;-72
2024/01/23 05:56:51;;;;;;;33.30;23.05;;;;;;;-0.18;80.66;99814.00;5128951;28;20039;-72
2024/01/23 05:59:18;;;;;;;28.00;20.45;;;;;;;-0.05;80.69;99814.81;5129199;28;20051;-71
2024/01/23 06:01:45;;;;;;;23.65;17.40;;;;;;;0.09;82.01;99812.13;5129404;28;20085;-72
2024/01/23 06:04:11;;;;;;;17.27;13.13;;;;;;;0.31;83.84;99818.94;5129328;28;20088;-71
2024/01/23 06:06:43;;;;;;;14.80;11.70;;;;;;;0.50;85.24;99814.47;5128660;28;20051;-71
2024/01/23 06:09:10;;;;;;;11.93;9.43;;;;;;;0.71;85.52;99822.13;5128125;28;20043;-70
2024/01/23 06:11:38;;;;;;;11.00;7.95;;;;;;;0.91;86.45;99815.00;5129066;28;20039;-70
2024/01/23 06:14:05;;;;;;;11.40;8.07;;;;;;;1.08;86.66;99827.91;5128776;28;20104;-70
2024/01/23 06:16:31;;;;;;;9.35;6.30;;;;;;;1.18;86.70;99826.06;5128689;28;20040;-71
2024/01/23 06:18:58;;;;;;;7.13;5.18;;;;;;;1.41;87.64;99821.47;5128915;28;20100;-71
2024/01/23 06:21:25;;;;;;;7.68;5.00;;;;;;;1.45;86.84;99830.13;5128251;28;20047;-71
2024/01/23 06:23:53;;;;;;;8.30;5.32;;;;;;;1.56;87.02;99830.88;5128019;28;20081;-71
2024/01/23 06:26:19;;;;;;;7.25;4.55;;;;;;;1.75;87.74;99829.81;5128248;28;20088;-71
2024/01/23 06:28:46;;;;;;;4.75;4.07;;;;;;;1.62;87.33;99788.19;5128749;28;20043;-71
2024/01/23 06:31:13;;;;;;;7.35;4.10;;;;;;;1.92;87.32;99828.75;5127966;28;20031;-71
2024/01/23 06:33:40;;;;;;;5.80;4.22;;;;;;;2.01;87.81;99828.63;5128108;28;20346;-71
2024/01/23 06:36:07;;;;;;;5.60;4.28;;;;;;;2.08;87.50;99823.31;5128115;28;20047;-72
2024/01/23 06:38:34;;;;;;;5.18;4.00;;;;;;;1.37;87.22;99702.25;5127973;28;20055;-71
2024/01/23 06:41:02;;;;;;;4.60;4.00;;;;;;;1.99;86.72;99794.66;5128189;28;20055;-71
2024/01/23 06:43:29;;;;;;;5.53;4.03;;;;;;;2.35;87.25;99847.34;5128483;28;20047;-72
2024/01/23 06:45:57;;;;;;;6.68;4.40;;;;;;;2.06;86.78;99798.94;5127038;28;20044;-71
2024/01/23 06:48:23;;;;;;;6.65;3.88;;;;;;;2.48;86.05;99870.69;5128352;28;20292;-72
2024/01/23 06:50:50;;;;;;;4.07;3.63;;;;;;;1.52;86.17;99677.69;5128110;28;20216;-72
2024/01/23 06:53:17;;;;;;;4.30;3.67;;;;;;;2.59;86.05;99859.22;5126905;28;20043;-72
2024/01/23 06:55:43;;;;;;;5.00;3.95;;;;;;;2.68;85.49;99861.69;5127722;28;20039;-71
2024/01/23 06:58:11;;;;;;;5.28;3.65;;;;;;;2.71;85.70;99859.03;5128309;28;20062;-71
2024/01/23 07:00:38;;;;;;;5.93;3.88;;;;;;;2.72;85.24;99859.00;5127573;28;20081;-71
2024/01/23 07:03:06;;;;;;;6.47;4.90;;;;;;;2.72;85.13;99864.25;5127012;28;20299;-71
2024/01/23 07:05:33;;;;;;;6.80;4.00;;;;;;;2.53;85.06;99834.88;5127151;28;20085;-72
2024/01/23 07:08:00;;;;;;;5.50;4.30;;;;;;;2.63;84.17;99845.19;5127174;28;20043;-72
2024/01/23 07:10:26;;;;;;;5.75;3.72;;;;;;;2.87;84.31;99874.47;5126968;28;20047;-71
2024/01/23 07:12:53;;;;;;;5.50;3.88;;;;;;;2.86;84.38;99888.44;5127036;28;20043;-71
2024/01/23 07:15:21;;;;;;;4.75;4.22;;;;;;;2.87;84.31;99897.16;5126995;28;20039;-72
2024/01/23 07:17:51;;;;;;;4.68;3.75;;;;;;;2.87;83.65;99905.88;5127008;28;20048;-72
2024/01/23 07:20:18;;;;;;;4.43;3.90;;;;;;;2.91;84.40;99911.94;5126746;28;20062;-72
2024/01/23 07:22:45;;;;;;;4.13;3.72;;;;;;;2.75;84.24;99886.88;5126708;28;20077;-71
2024/01/23 07:25:12;;;;;;;4.70;3.80;;;;;;;2.99;84.42;99914.44;5127167;28;20039;-71
2024/01/23 07:27:38;;;;;;;4.68;4.10;;;;;;;3.02;84.04;99902.16;5127235;28;20280;-71
2024/01/23 07:30:06;;;;;;;7.78;4.22;;;;;;;2.95;84.21;99884.81;5126871;28;20303;-72
2024/01/23 07:32:34;;;;;;;7.80;4.18;;;;;;;3.12;84.04;99910.75;5126812;28;20035;-72
2024/01/23 07:35:01;;;;;;;5.03;3.92;;;;;;;3.19;84.10;99909.75;5125809;28;20056;-72
2024/01/23 07:37:28;;;;;;;5.93;4.32;;;;;;;3.27;84.23;99920.09;5126881;28;20062;-72
2024/01/23 07:39:56;;;;;;;5.50;3.75;;;;;;;3.36;84.00;99926.06;5126460;28;20100;-72
2024/01/23 07:42:22;;;;;;;6.68;3.60;;;;;;;3.39;83.67;99922.50;5126785;28;20043;-72
2024/01/23 07:44:49;;;;;;;6.03;4.28;;;;;;;3.45;83.40;99925.91;5125970;28;20054;-71
2024/01/23 07:47:16;;;;;;;6.07;3.60;;;;;;;3.51;83.49;99923.16;5126088;28;20040;-72
2024/01/23 07:49:44;;;;;;;5.18;3.65;;;;;;;3.51;82.99;99914.44;5126540;28;20244;-72
2024/01/23 07:52:11;;;;;;;5.10;3.92;;;;;;;3.60;83.17;99924.75;5126171;28;20039;-72
2024/01/23 07:54:37;;;;;;;5.13;3.58;;;;;;;3.63;82.78;99936.94;5126238;28;20330;-72
2024/01/23 07:57:05;;;;;;;6.57;4.20;;;;;;;3.68;82.56;99938.59;5126058;28;20055;-72
2024/01/23 07:59:31;;;;;;;5.15;3.78;;;;;;;3.59;82.53;99930.03;5125935;28;20040;-72
2024/01/23 08:01:58;;;;;;;5.65;3.30;;;;;;;3.78;82.16;99949.78;5126531;28;20040;-72
2024/01/23 08:04:25;;;;;;;6.78;3.60;;;;;;;3.79;81.86;99957.63;5126467;28;20097;-72
2024/01/23 08:06:54;;;;;;;4.60;3.20;;;;;;;3.80;81.75;99972.47;5126250;28;20055;-72
2024/01/23 08:09:20;;;;;;;5.43;3.15;;;;;;;3.82;81.34;99964.56;5126912;28;20165;-72
2024/01/23 08:11:48;;;;;;;4.22;3.35;;;;;;;3.81;81.46;99966.31;5125362;28;20303;-72
2024/01/23 08:14:15;;;;;;;4.00;3.20;;;;;;;3.96;81.77;99961.69;5125270;28;20049;-72
2024/01/23 08:16:44;;;;;;;3.67;2.90;;;;;;;4.18;81.69;99950.75;5126283;28;20047;-72
2024/01/23 08:19:10;;;;;;;4.85;4.05;;;;;;;4.25;81.20;99974.28;5126758;28;20051;-72
2024/01/23 08:21:37;;;;;;;5.78;3.28;;;;;;;4.38;80.51;99966.13;5126738;28;20039;-72
2024/01/23 08:24:06;;;;;;;5.13;3.55;;;;;;;4.53;80.37;99969.34;5126660;28;20047;-72
2024/01/23 08:26:33;;;;;;;4.07;3.10;;;;;;;4.52;79.65;99938.72;5126185;28;20055;-72
2024/01/23 08:29:00;;;;;;;8.43;3.58;;;;;;;4.05;79.24;99862.69;5125893;28;20331;-72
2024/01/23 08:31:26;;;;;;;5.60;3.20;;;;;;;5.00;79.46;99965.72;5125429;28;20294;-72
2024/01/23 08:33:53;;;;;;;5.53;3.72;;;;;;;5.07;77.98;99969.91;5124638;28;20292;-72
2024/01/23 08:36:20;;;;;;;4.30;3.17;;;;;;;5.08;77.11;99972.50;5126396;28;20089;-72
2024/01/23 08:38:47;;;;;;;4.43;3.60;;;;;;;5.15;77.08;99973.22;5124930;28;20318;-72
2024/01/23 08:41:15;;;;;;;6.63;3.45;;;;;;;5.15;77.10;99969.75;5126124;28;20051;-72
2024/01/23 08:43:42;;;;;;;5.22;3.47;;;;;;;5.24;76.60;99967.75;5126131;28;20043;-72
2024/01/23 08:46:09;;;;;;;4.50;3.17;;;;;;;5.27;76.11;99978.19;5126014;28;20043;-72
2024/01/23 08:48:36;;;;;;;4.60;2.95;;;;;;;5.34;74.99;99976.28;5126009;28;20039;-72
2024/01/23 08:51:03;;;;;;;3.65;2.78;;;;;;;5.11;74.70;99909.38;5124480;28;20048;-72
2024/01/23 08:53:29;;;;;;;3.10;2.70;;;;;;;5.44;74.34;99972.53;5125557;28;20046;-73
2024/01/23 08:55:56;;;;;;;3.78;2.65;;;;;;;5.28;74.38;99921.25;5124458;28;20108;-73
2024/01/23 08:58:24;;;;;;;3.60;2.78;;;;;;;5.67;73.95;99998.25;5125995;28;20093;-72
2024/01/23 09:00:51;;;;;;;4.88;2.60;;;;;;;5.81;73.26;99987.41;5125865;28;20047;-73
2024/01/23 09:03:18;;;;;;;4.45;3.00;;;;;;;5.86;72.46;99980.25;5126052;28;20058;-72
2024/01/23 09:05:44;;;;;;;4.85;2.80;;;;;;;5.95;72.41;99970.34;5125749;28;20051;-72
2024/01/23 09:08:11;;;;;;;3.65;2.75;;;;;;;6.12;72.23;99983.06;5126232;28;20096;-72
2024/01/23 09:10:37;;;;;;;3.40;2.40;;;;;;;6.29;71.45;99986.09;5125943;28;20051;-72
2024/01/23 09:13:04;;;;;;;3.45;2.60;;;;;;;6.39;70.31;99984.91;5125607;28;20043;-72
2024/01/23 09:15:33;;;;;;;3.83;2.45;;;;;;;6.45;70.38;99989.16;5125638;28;20089;-72
2024/01/23 09:18:00;;;;;;;4.75;2.60;;;;;;;6.58;70.30;99994.94;5125442;28;20126;-72
2024/01/23 09:20:26;;;;;;;3.40;2.30;;;;;;;6.60;69.56;99991.34;5126428;28;20077;-72
2024/01/23 09:22:53;;;;;;;5.03;2.63;;;;;;;6.71;68.79;99999.78;5125671;28;20092;-72
2024/01/23 09:25:20;;;;;;;3.17;2.25;;;;;;;6.68;68.72;100004.28;5127955;28;20281;-71
2024/01/23 09:27:48;;;;;;;3.63;2.80;;;;;;;6.65;68.57;99976.28;5129754;28;20107;-72
2024/01/23 09:30:15;;;;;;;4.55;2.85;;;;;;;6.78;68.08;99989.09;5128888;28;20093;-72
2024/01/23 09:32:44;;;;;;;5.00;2.15;;;;;;;6.95;67.83;100000.00;5128721;28;20057;-72
2024/01/23 09:35:13;;;;;;;3.67;2.35;;;;;;;7.16;67.75;100009.03;5129294;28;20044;-72
2024/01/23 09:37:39;;;;;;;4.25;2.83;;;;;;;7.32;66.89;99999.75;5128973;28;20063;-72
2024/01/23 09:40:08;;;;;;;4.22;2.50;;;;;;;7.29;66.38;100007.75;5128907;28;20315;-72
2024/01/23 09:42:37;;;;;;;4.65;2.80;;;;;;;7.16;66.26;100014.31;5128823;28;20039;-72
2024/01/23 09:45:09;;;;;;;3.78;2.40;;;;;;;7.27;65.74;100005.16;5128664;28;20180;-72
2024/01/23 09:47:36;;;;;;;3.55;2.35;;;;;;;7.42;65.67;100000.34;5128577;28;20337;-72
2024/01/23 09:50:07;;;;;;;6.10;2.45;;;;;;;7.41;65.21;99993.34;5127865;28;20219;-72
2024/01/23 09:52:35;;;;;;;4.20;2.67;;;;;;;7.66;64.79;100010.97;5127458;28;20039;-72
2024/01/23 09:55:02;;;;;;;4.15;2.30;;;;;;;7.59;64.51;100008.56;5128340;28;20052;-72
2024/01/23 09:57:30;;;;;;;4.40;2.60;;;;;;;7.60;64.65;99999.75;5128681;28;20311;-72
2024/01/23 09:59:56;;;;;;;5.25;2.47;;;;;;;7.75;64.19;100001.88;5128211;28;20039;-72
2024/01/23 10:02:24;;;;;;;4.25;2.58;;;;;;;7.59;64.11;99990.97;5128216;28;20063;-72
2024/01/23 10:04:52;;;;;;;4.72;2.38;;;;;;;7.59;64.26;99988.34;5128494;28;20238;-72
2024/01/23 10:07:20;;;;;;;4.25;2.78;;;;;;;7.38;64.20;99960.03;5127183;28;20250;-72
2024/01/23 10:09:49;;;;;;;4.50;2.83;;;;;;;7.47;63.95;99994.00;5128157;28;20092;-72
2024/01/23 10:12:15;;;;;;;3.67;2.42;;;;;;;7.50;64.30;99990.41;5128135;28;20338;-72
2024/01/23 10:14:43;;;;;;;4.53;2.30;;;;;;;7.33;64.27;99997.09;5128320;28;20039;-72
2024/01/23 10:17:10;;;;;;;4.72;2.38;;;;;;;7.19;63.90;99988.72;5127975;28;20036;-71
2024/01/23 10:19:38;;;;;;;4.35;2.28;;;;;;;7.11;64.41;100000.41;5127804;28;20045;-72
2024/01/23 10:22:05;;;;;;;6.15;2.63;;;;;;;7.18;64.45;100012.50;5127842;28;20039;-72
2024/01/23 10:24:33;;;;;;;4.55;2.75;;;;;;;7.26;64.32;99990.25;5128167;28;20063;-71
2024/01/23 10:26:59;;;;;;;4.30;2.15;;;;;;;7.31;64.14;99993.59;5128386;28;20100;-72
2024/01/23 10:29:26;;;;;;;2.75;2.00;;;;;;;7.42;63.67;100001.19;5128560;28;20091;-72
2024/01/23 10:31:53;;;;;;;3.25;2.20;;;;;;;7.55;63.68;100012.22;5128735;28;20097;-72
2024/01/23 10:34:20;;;;;;;4.68;2.72;;;;;;;7.72;63.13;100020.44;5128042;28;20039;-72
2024/01/23 10:36:47;;;;;;;3.72;2.40;;;;;;;7.79;62.67;100019.34;5127248;28;20043;-72
2024/01/23 10:39:15;;;;;;;5.40;2.20;;;;;;;7.78;62.54;100022.88;5128140;28;20051;-72
2024/01/23 10:41:45;;;;;;;3.88;2.40;;;;;;;7.84;62.17;100022.69;5128197;28;20039;-72
2024/01/23 10:44:13;;;;;;;6.03;2.33;;;;;;;7.90;61.83;100019.84;5128353;28;20039;-72
2024/01/23 10:46:42;;;;;;;5.28;2.22;;;;;;;8.14;61.91;100027.84;5127861;28;20058;-72
2024/01/23 10:49:08;;;;;;;5.75;2.58;;;;;;;8.23;60.79;100031.03;5127911;28;20088;-72
2024/01/23 10:51:37;;;;;;;3.50;2.10;;;;;;;8.22;60.91;100031.06;5128161;28;20055;-71
2024/01/23 10:54:09;;;;;;;3.97;2.47;;;;;;;8.17;60.96;100051.50;5128240;28;20096;-71
2024/01/23 10:56:44;;;;;;;3.95;2.35;;;;;;;8.18;60.63;100047.94;5128008;28;20082;-72
2024/01/23 10:59:16;;;;;;;3.05;2.28;;;;;;;8.10;59.82;100066.69;5127091;28;20203;-72
2024/01/23 11:01:45;;;;;;;3.80;1.88;;;;;;;8.13;60.35;100049.88;5127657;28;20062;-71
2024/01/23 11:04:12;;;;;;;4.30;2.13;;;;;;;8.08;60.36;100059.72;5127340;28;20127;-72
2024/01/23 11:06:47;;;;;;;3.78;2.10;;;;;;;8.03;60.44;100052.81;5127551;28;20063;-72
2024/01/23 11:09:19;;;;;;;3.63;1.77;;;;;;;7.33;60.16;99965.44;5126663;28;20071;-72
2024/01/23 11:11:57;;;;;;;2.88;2.05;;;;;;;7.49;59.55;99999.22;5127857;28;20077;-72
2024/01/23 11:14:29;;;;;;;3.65;1.95;;;;;;;7.24;59.50;99949.88;5127538;28;20043;-72
2024/01/23 11:17:03;;;;;;;3.15;1.90;;;;;;;7.81;59.68;100066.78;5126428;28;20036;-72
2024/01/23 11:19:29;;;;;;;4.22;1.83;;;;;;;7.48;59.86;100052.91;5127296;28;20379;-72
2024/01/23 11:22:01;;;;;;;2.75;1.80;;;;;;;7.60;60.12;100073.59;5127553;28;20043;-72
2024/01/23 11:24:40;;;;;;;3.50;2.03;;;;;;;7.52;60.22;100078.25;5126322;28;20042;-72
2024/01/23 11:27:09;;;;;;;3.75;1.98;;;;;;;7.46;60.41;100073.19;5127092;28;20051;-72